Time;durP1;ratioP1;P1;durP2;ratioP2;P2;SDS_P1;SDS_P2;PMS_P1;PMS_P2;Temp;Humidity;BMP_temperature;BMP_pressure;BME280_temperature;BME280_humidity;BME280_pressure;Samples;Min_cycle;Max_cycle;Signal;HPM_P1;HPM_P2
2023/09/20 00:03:04;;;;;;;1.97;1.73;;;;;;;;;;4919909;29;20220;-74
2023/09/20 00:06:09;;;;;;;5.30;2.10;;;;;;;;;;4918870;29;20184;-74
2023/09/20 00:09:15;;;;;;;3.53;2.20;;;;;;;;;;4919589;29;20633;-74
2023/09/20 00:12:20;;;;;;;2.30;2.00;;;;;;;;;;4919387;29;20728;-74
2023/09/20 00:15:24;;;;;;;3.00;1.87;;;;;;;;;;4918743;29;20185;-75
2023/09/20 00:18:30;;;;;;;2.70;1.90;;;;;;;;;;4918579;29;20181;-74
2023/09/20 00:21:34;;;;;;;3.60;2.47;;;;;;;;;;4919552;29;20224;-74
2023/09/20 00:24:38;;;;;;;6.47;1.90;;;;;;;;;;4918502;29;20185;-74
2023/09/20 00:27:45;;;;;;;4.00;1.87;;;;;;;;;;4919169;29;20185;-75
2023/09/20 00:30:49;;;;;;;2.57;1.70;;;;;;;;;;4918389;29;20181;-74
2023/09/20 00:33:54;;;;;;;2.70;1.87;;;;;;;;;;4918853;29;20188;-74
2023/09/20 00:36:58;;;;;;;5.27;2.23;;;;;;;;;;4919250;29;20208;-74
2023/09/20 00:40:03;;;;;;;2.87;1.67;;;;;;;;;;4918240;29;20185;-74
2023/09/20 00:43:10;;;;;;;3.40;1.90;;;;;;;;;;4918359;29;20221;-74
2023/09/20 00:46:15;;;;;;;2.67;1.83;;;;;;;;;;4918323;29;20185;-74
2023/09/20 00:49:20;;;;;;;2.30;1.90;;;;;;;;;;4918340;29;20193;-74
2023/09/20 00:52:27;;;;;;;1.80;1.50;;;;;;;;;;4918047;29;20569;-74
2023/09/20 00:55:33;;;;;;;2.50;1.90;;;;;;;;;;4917984;29;20542;-74
2023/09/20 00:58:38;;;;;;;2.80;1.50;;;;;;;;;;4918937;29;20213;-75
2023/09/20 01:01:42;;;;;;;4.37;1.97;;;;;;;;;;4918099;29;20561;-74
2023/09/20 01:04:46;;;;;;;5.77;1.93;;;;;;;;;;4918913;29;20548;-74
2023/09/20 01:07:57;;;;;;;4.30;2.00;;;;;;;;;;4919025;29;20189;-74
2023/09/20 01:11:02;;;;;;;6.17;2.17;;;;;;;;;;4917181;29;20181;-75
2023/09/20 01:14:07;;;;;;;5.10;1.90;;;;;;;;;;4918559;29;20193;-75
2023/09/20 01:17:14;;;;;;;2.37;1.90;;;;;;;;;;4917486;29;20217;-75
2023/09/20 01:20:19;;;;;;;2.67;1.87;;;;;;;;;;4917799;29;20193;-75
2023/09/20 01:23:26;;;;;;;4.93;2.43;;;;;;;;;;4917428;29;20189;-74
2023/09/20 01:26:30;;;;;;;3.47;2.10;;;;;;;;;;4917633;29;20197;-74
2023/09/20 01:29:36;;;;;;;2.10;1.90;;;;;;;;;;4917362;29;20641;-74
2023/09/20 01:32:39;;;;;;;3.27;1.83;;;;;;;;;;4917203;29;20220;-75
2023/09/20 01:35:45;;;;;;;1.93;1.67;;;;;;;;;;4917504;29;20181;-75
2023/09/20 01:38:49;;;;;;;2.13;1.77;;;;;;;;;;4917063;29;20209;-74
2023/09/20 01:41:55;;;;;;;2.10;1.90;;;;;;;;;;4918111;29;20224;-73
2023/09/20 01:45:00;;;;;;;5.10;2.10;;;;;;;;;;4917103;29;20189;-74
2023/09/20 01:48:08;;;;;;;2.90;2.07;;;;;;;;;;4917211;29;20181;-74
2023/09/20 01:51:12;;;;;;;2.30;1.97;;;;;;;;;;4917092;29;20221;-74
2023/09/20 01:54:17;;;;;;;4.60;2.40;;;;;;;;;;4916887;29;20534;-74
2023/09/20 01:57:22;;;;;;;2.50;2.10;;;;;;;;;;4917003;29;20209;-74
2023/09/20 02:00:31;;;;;;;2.73;2.33;;;;;;;;;;4916792;29;20189;-74
2023/09/20 02:03:36;;;;;;;4.77;2.30;;;;;;;;;;4916983;29;20189;-74
2023/09/20 02:06:39;;;;;;;3.33;2.57;;;;;;;;;;4916939;29;20181;-74
2023/09/20 02:09:45;;;;;;;2.53;1.97;;;;;;;;;;4916921;29;20625;-74
2023/09/20 02:12:51;;;;;;;2.40;2.20;;;;;;;;;;4917232;29;20232;-74
2023/09/20 02:15:59;;;;;;;5.83;2.43;;;;;;;;;;4916471;29;20185;-74
2023/09/20 02:19:03;;;;;;;2.87;2.30;;;;;;;;;;4916466;29;20212;-74
2023/09/20 02:22:07;;;;;;;3.37;2.20;;;;;;;;;;4915623;29;20217;-74
2023/09/20 02:25:14;;;;;;;4.33;2.60;;;;;;;;;;4916354;29;20189;-74
2023/09/20 02:28:18;;;;;;;5.93;2.40;;;;;;;;;;4916665;29;20185;-74
2023/09/20 02:31:22;;;;;;;3.97;2.30;;;;;;;;;;4916096;29;20224;-75
2023/09/20 02:34:27;;;;;;;2.23;2.00;;;;;;;;;;4917140;29;20176;-74
2023/09/20 02:37:31;;;;;;;2.07;1.87;;;;;;;;;;4916240;29;20570;-74
2023/09/20 02:40:36;;;;;;;2.40;1.90;;;;;;;;;;4916538;29;20185;-73
2023/09/20 02:43:40;;;;;;;2.40;2.20;;;;;;;;;;4916486;29;20235;-74
2023/09/20 02:46:48;;;;;;;2.30;1.93;;;;;;;;;;4917271;29;20185;-73
2023/09/20 02:49:52;;;;;;;3.40;2.30;;;;;;;;;;4916646;29;20625;-73
2023/09/20 02:52:56;;;;;;;4.00;2.70;;;;;;;;;;4916057;29;20220;-74
2023/09/20 02:56:01;;;;;;;4.30;2.17;;;;;;;;;;4916412;29;20185;-73
2023/09/20 02:59:07;;;;;;;4.40;2.57;;;;;;;;;;4916155;29;20212;-74
2023/09/20 03:02:12;;;;;;;4.17;2.33;;;;;;;;;;4916761;29;20228;-73
2023/09/20 03:05:21;;;;;;;3.33;1.97;;;;;;;;;;4916817;29;20189;-74
2023/09/20 03:08:26;;;;;;;2.47;2.13;;;;;;;;;;4916251;29;20177;-74
2023/09/20 03:11:30;;;;;;;5.00;2.30;;;;;;;;;;4916067;29;20224;-74
2023/09/20 03:14:38;;;;;;;2.67;1.77;;;;;;;;;;4916835;29;20185;-74
2023/09/20 03:17:47;;;;;;;2.60;1.87;;;;;;;;;;4905063;29;20221;-74
2023/09/20 03:20:52;;;;;;;3.80;1.90;;;;;;;;;;4916050;29;20189;-74
2023/09/20 03:23:57;;;;;;;2.53;2.30;;;;;;;;;;4917023;29;20193;-74
2023/09/20 03:27:02;;;;;;;4.03;1.83;;;;;;;;;;4916599;29;20522;-74
2023/09/20 03:30:08;;;;;;;3.03;2.13;;;;;;;;;;4915817;29;20538;-74
2023/09/20 03:33:13;;;;;;;2.33;2.03;;;;;;;;;;4917554;29;20228;-74
2023/09/20 03:36:18;;;;;;;3.20;2.70;;;;;;;;;;4919684;29;20181;-74
2023/09/20 03:39:25;;;;;;;3.10;2.10;;;;;;;;;;4919234;29;20212;-74
2023/09/20 03:42:31;;;;;;;3.37;2.30;;;;;;;;;;4919232;29;20228;-74
2023/09/20 03:45:35;;;;;;;2.60;2.27;;;;;;;;;;4919261;29;20192;-74
2023/09/20 03:48:40;;;;;;;4.97;2.17;;;;;;;;;;4919724;29;20181;-74
2023/09/20 03:51:45;;;;;;;2.13;1.90;;;;;;;;;;4919188;29;20220;-75
2023/09/20 03:54:51;;;;;;;3.43;2.00;;;;;;;;;;4920097;29;20185;-74
2023/09/20 03:57:56;;;;;;;2.53;1.60;;;;;;;;;;4919229;29;20212;-73
2023/09/20 04:01:04;;;;;;;2.63;1.70;;;;;;;;;;4919155;29;20207;-74
2023/09/20 04:04:08;;;;;;;3.33;2.07;;;;;;;;;;4908395;29;20181;-74
2023/09/20 04:07:12;;;;;;;2.70;1.87;;;;;;;;;;4918991;29;20526;-74
2023/09/20 04:10:18;;;;;;;3.93;2.03;;;;;;;;;;4919371;29;20189;-74
2023/09/20 04:13:24;;;;;;;3.00;2.13;;;;;;;;;;4919398;29;20213;-74
2023/09/20 04:16:28;;;;;;;7.87;2.00;;;;;;;;;;4918929;29;20189;-74
2023/09/20 04:19:33;;;;;;;6.87;2.60;;;;;;;;;;4918774;29;20557;-74
2023/09/20 04:22:40;;;;;;;3.73;2.00;;;;;;;;;;4918555;29;20221;-74
2023/09/20 04:25:44;;;;;;;4.97;2.13;;;;;;;;;;4918777;29;20185;-74
2023/09/20 04:28:49;;;;;;;3.13;2.30;;;;;;;;;;4918640;29;20185;-74
2023/09/20 04:31:52;;;;;;;2.23;1.70;;;;;;;;;;4918494;29;20569;-74
2023/09/20 04:35:00;;;;;;;3.63;1.83;;;;;;;;;;4918660;29;20185;-74
2023/09/20 04:38:04;;;;;;;3.93;1.97;;;;;;;;;;4918260;29;20695;-74
2023/09/20 04:41:14;;;;;;;2.40;2.00;;;;;;;;;;4918555;29;20189;-74
2023/09/20 04:44:18;;;;;;;3.17;2.20;;;;;;;;;;4917449;29;20181;-73
2023/09/20 04:47:22;;;;;;;7.50;2.17;;;;;;;;;;4918202;29;20180;-74
2023/09/20 04:50:27;;;;;;;2.37;1.80;;;;;;;;;;4918304;29;20185;-74
2023/09/20 04:53:33;;;;;;;3.40;1.97;;;;;;;;;;4917974;29;20188;-74
2023/09/20 04:56:37;;;;;;;2.77;1.97;;;;;;;;;;4918043;29;20181;-74
2023/09/20 04:59:42;;;;;;;10.00;2.13;;;;;;;;;;4917863;29;20562;-74
2023/09/20 05:02:46;;;;;;;3.60;1.70;;;;;;;;;;4917906;29;20213;-74
2023/09/20 05:05:51;;;;;;;5.10;2.20;;;;;;;;;;4917846;29;20185;-74
2023/09/20 05:08:55;;;;;;;5.87;1.97;;;;;;;;;;4917837;29;20189;-74
2023/09/20 05:11:59;;;;;;;3.97;2.50;;;;;;;;;;4917476;29;20229;-74
2023/09/20 05:15:03;;;;;;;4.50;2.20;;;;;;;;;;4917586;29;20644;-74
2023/09/20 05:18:07;;;;;;;5.43;3.20;;;;;;;;;;4917767;29;20209;-74
2023/09/20 05:21:12;;;;;;;3.97;3.33;;;;;;;;;;4917630;29;20573;-74
2023/09/20 05:24:17;;;;;;;4.77;2.63;;;;;;;;;;4917390;29;20189;-74
2023/09/20 05:27:20;;;;;;;3.87;2.60;;;;;;;;;;4917356;29;20193;-74
2023/09/20 05:30:25;;;;;;;3.97;2.60;;;;;;;;;;4917287;29;20637;-74
2023/09/20 05:33:30;;;;;;;9.40;4.67;;;;;;;;;;4918346;29;20193;-74
2023/09/20 05:36:35;;;;;;;8.13;4.27;;;;;;;;;;4918262;29;20189;-75
2023/09/20 05:39:39;;;;;;;9.40;3.93;;;;;;;;;;4917894;29;20212;-74
2023/09/20 05:42:45;;;;;;;10.83;3.43;;;;;;;;;;4917898;29;20573;-74
2023/09/20 05:45:48;;;;;;;7.73;3.70;;;;;;;;;;4916994;29;20194;-74
2023/09/20 05:48:52;;;;;;;6.97;4.27;;;;;;;;;;4916957;29;20633;-74
2023/09/20 05:51:57;;;;;;;4.80;3.70;;;;;;;;;;4917606;29;20220;-74
2023/09/20 05:55:02;;;;;;;7.17;3.53;;;;;;;;;;4917608;29;20189;-74
2023/09/20 05:58:07;;;;;;;4.63;3.20;;;;;;;;;;4917566;29;20212;-73
2023/09/20 06:01:12;;;;;;;5.90;3.47;;;;;;;;;;4917480;29;20228;-73
2023/09/20 06:04:18;;;;;;;4.47;3.13;;;;;;;;;;4917521;29;20185;-74
2023/09/20 06:07:22;;;;;;;7.83;4.90;;;;;;;;;;4917463;29;20189;-74
2023/09/20 06:10:27;;;;;;;10.73;5.40;;;;;;;;;;4917365;29;20177;-74
2023/09/20 06:13:32;;;;;;;7.53;5.03;;;;;;;;;;4917332;29;20696;-74
2023/09/20 06:16:36;;;;;;;9.00;4.53;;;;;;;;;;4917297;29;20189;-74
2023/09/20 06:19:40;;;;;;;6.73;4.80;;;;;;;;;;4917450;29;20205;-73
2023/09/20 06:22:43;;;;;;;9.83;4.93;;;;;;;;;;4917219;29;20220;-74
2023/09/20 06:25:47;;;;;;;4.93;3.97;;;;;;;;;;4916697;29;20185;-74
2023/09/20 06:28:52;;;;;;;5.73;4.10;;;;;;;;;;4916428;29;20185;-74
2023/09/20 06:31:56;;;;;;;4.17;3.60;;;;;;;;;;4917315;29;20220;-74
2023/09/20 06:35:04;;;;;;;4.60;3.90;;;;;;;;;;4917472;29;20621;-73
2023/09/20 06:38:09;;;;;;;4.73;3.70;;;;;;;;;;4917344;29;20185;-74
2023/09/20 06:41:13;;;;;;;5.17;4.20;;;;;;;;;;4916361;29;20232;-74
2023/09/20 06:44:18;;;;;;;4.13;3.57;;;;;;;;;;4917193;29;20189;-74
2023/09/20 06:47:23;;;;;;;6.00;4.43;;;;;;;;;;4917231;29;20185;-74
2023/09/20 06:50:29;;;;;;;4.97;4.03;;;;;;;;;;4917235;29;20181;-74
2023/09/20 06:53:33;;;;;;;3.63;3.00;;;;;;;;;;4917193;29;20185;-74
2023/09/20 06:56:37;;;;;;;7.10;4.10;;;;;;;;;;4917169;29;20185;-74
2023/09/20 06:59:44;;;;;;;4.50;4.10;;;;;;;;;;4916945;29;20569;-74
2023/09/20 07:02:49;;;;;;;5.70;3.20;;;;;;;;;;4915926;29;20228;-74
2023/09/20 07:05:53;;;;;;;8.37;2.57;;;;;;;;;;4916294;29;20189;-74
2023/09/20 07:08:57;;;;;;;3.70;3.17;;;;;;;;;;4919540;29;20206;-74
2023/09/20 07:12:03;;;;;;;6.20;3.30;;;;;;;;;;4920609;29;20232;-74
2023/09/20 07:15:07;;;;;;;3.20;2.87;;;;;;;;;;4920641;29;20215;-74
2023/09/20 07:18:11;;;;;;;3.87;2.70;;;;;;;;;;4920464;29;20641;-74
2023/09/20 07:21:16;;;;;;;2.57;1.77;;;;;;;;;;4920617;29;20224;-74
2023/09/20 07:24:24;;;;;;;3.13;2.13;;;;;;;;;;4919658;29;20546;-74
2023/09/20 07:27:32;;;;;;;5.53;2.70;;;;;;;;;;4920399;29;20185;-74
2023/09/20 07:30:40;;;;;;;4.60;3.40;;;;;;;;;;4920306;29;20181;-74
2023/09/20 07:33:44;;;;;;;4.97;3.77;;;;;;;;;;4919974;29;20185;-74
2023/09/20 07:36:53;;;;;;;4.03;3.20;;;;;;;;;;4920436;29;20630;-74
2023/09/20 07:39:57;;;;;;;2.90;2.60;;;;;;;;;;4919500;29;20208;-75
2023/09/20 07:43:06;;;;;;;4.87;3.63;;;;;;;;;;4920039;29;20232;-74
2023/09/20 07:46:13;;;;;;;5.03;3.90;;;;;;;;;;4919782;29;20185;-74
2023/09/20 07:49:17;;;;;;;9.60;4.40;;;;;;;;;;4919918;29;20526;-74
2023/09/20 07:52:21;;;;;;;5.20;3.23;;;;;;;;;;4919123;29;20702;-75
2023/09/20 07:55:26;;;;;;;4.20;3.80;;;;;;;;;;4919836;29;20189;-75
2023/09/20 07:58:40;;;;;;;5.93;3.00;;;;;;;;;;4919972;29;20181;-74
2023/09/20 08:01:45;;;;;;;3.10;2.80;;;;;;;;;;4919812;29;20216;-74
2023/09/20 08:04:49;;;;;;;4.00;2.47;;;;;;;;;;4919952;29;20185;-75
2023/09/20 08:07:53;;;;;;;3.93;2.77;;;;;;;;;;4919654;29;20182;-74
2023/09/20 08:10:57;;;;;;;3.77;2.80;;;;;;;;;;4919984;29;20185;-74
2023/09/20 08:14:03;;;;;;;4.67;1.67;;;;;;;;;;4919930;29;20186;-74
2023/09/20 08:20:29;;;;;;;3.30;1.47;;;;;;;;;;4919310;29;20210;-74
2023/09/20 09:00:51;;;;;;;2.60;1.33;;;;;;;;;;4918693;29;20201;-74
2023/09/20 09:03:57;;;;;;;5.72;1.30;;;;;;;;;;4918955;29;20188;-75
2023/09/20 09:07:01;;;;;;;2.13;1.30;;;;;;;;;;4917774;29;20187;-74
2023/09/20 09:10:05;;;;;;;2.97;1.23;;;;;;;;;;4918833;29;20183;-74
2023/09/20 09:13:09;;;;;;;4.22;1.55;;;;;;;;;;4918277;29;20226;-74
2023/09/20 09:16:15;;;;;;;2.97;1.80;;;;;;;;;;4918350;29;20191;-74
2023/09/20 09:19:19;;;;;;;2.45;1.10;;;;;;;;;;4918470;29;20665;-74
2023/09/20 09:22:23;;;;;;;2.10;1.42;;;;;;;;;;4918446;29;20702;-74
2023/09/20 09:25:30;;;;;;;1.98;1.20;;;;;;;;;;4918252;29;20538;-74
2023/09/20 09:28:37;;;;;;;2.05;1.10;;;;;;;;;;4918409;29;20188;-75
2023/09/20 09:31:46;;;;;;;3.60;1.20;;;;;;;;;;4917102;29;20216;-74
2023/09/20 09:34:50;;;;;;;6.00;1.15;;;;;;;;;;4918330;29;20182;-74
2023/09/20 09:37:54;;;;;;;4.65;1.13;;;;;;;;;;4917995;29;20188;-74
2023/09/20 09:40:59;;;;;;;2.42;1.20;;;;;;;;;;4918100;29;20545;-75
2023/09/20 09:44:03;;;;;;;3.67;1.35;;;;;;;;;;4917333;29;20193;-75
2023/09/20 09:47:07;;;;;;;2.53;1.50;;;;;;;;;;4918078;29;20189;-74
2023/09/20 09:50:12;;;;;;;2.83;1.17;;;;;;;;;;4918035;29;20185;-74
2023/09/20 09:53:20;;;;;;;2.05;1.30;;;;;;;;;;4916924;29;20220;-74
2023/09/20 09:56:25;;;;;;;3.22;1.30;;;;;;;;;;4917910;29;20182;-74
2023/09/20 09:59:29;;;;;;;1.40;1.25;;;;;;;;;;4917764;29;20209;-76
2023/09/20 10:02:38;;;;;;;3.50;1.20;;;;;;;;;;4917465;29;20221;-74
2023/09/20 10:05:44;;;;;;;1.23;1.02;;;;;;;;;;4918077;29;20641;-73
2023/09/20 10:09:01;;;;;;;2.28;1.00;;;;;;;;;;4917433;29;20185;-74
2023/09/20 10:12:08;;;;;;;7.57;1.10;;;;;;;;;;4917258;29;20220;-74
2023/09/20 10:15:14;;;;;;;3.30;1.10;;;;;;;;;;4917460;29;20536;-74
2023/09/20 10:18:18;;;;;;;2.30;1.00;;;;;;;;;;4916631;29;20186;-74
2023/09/20 10:21:26;;;;;;;2.33;1.10;;;;;;;;;;4916404;29;20229;-74
2023/09/20 10:24:46;;;;;;;1.67;0.90;;;;;;;;;;4917814;29;20621;-74
2023/09/20 10:27:52;;;;;;;1.98;1.10;;;;;;;;;;4917466;29;20181;-75
2023/09/20 10:31:04;;;;;;;1.27;0.90;;;;;;;;;;4917084;29;20521;-73
2023/09/20 10:34:09;;;;;;;4.75;1.38;;;;;;;;;;4916683;29;20181;-75
2023/09/20 10:37:13;;;;;;;3.45;1.23;;;;;;;;;;4916388;29;20185;-74
2023/09/20 10:40:19;;;;;;;1.75;1.20;;;;;;;;;;4917033;29;20204;-75
2023/09/20 10:43:46;;;;;;;2.08;1.33;;;;;;;;;;4915699;29;20189;-75
2023/09/20 10:46:50;;;;;;;2.22;1.50;;;;;;;;;;4917290;29;20541;-75
2023/09/20 10:49:56;;;;;;;1.58;1.20;;;;;;;;;;4916467;29;20539;-75
2023/09/20 10:53:00;;;;;;;1.95;1.48;;;;;;;;;;4917042;29;20224;-74
2023/09/20 10:56:05;;;;;;;2.70;1.20;;;;;;;;;;4916437;29;20181;-75
2023/09/20 10:59:16;;;;;;;4.05;1.35;;;;;;;;;;4916277;29;20558;-74
2023/09/20 11:02:23;;;;;;;2.65;1.30;;;;;;;;;;4917046;29;20220;-75
2023/09/20 11:05:28;;;;;;;2.58;1.30;;;;;;;;;;4916808;29;20538;-75
2023/09/20 11:08:32;;;;;;;1.95;1.00;;;;;;;;;;4917112;29;20197;-76
2023/09/20 11:11:38;;;;;;;1.73;1.02;;;;;;;;;;4916790;29;20213;-76
2023/09/20 11:14:44;;;;;;;3.42;1.25;;;;;;;;;;4916084;29;20183;-75
2023/09/20 11:17:49;;;;;;;2.70;1.10;;;;;;;;;;4916197;29;20534;-75
2023/09/20 11:20:53;;;;;;;1.70;0.80;;;;;;;;;;4917082;29;20206;-75
2023/09/20 11:23:57;;;;;;;1.95;0.90;;;;;;;;;;4916996;29;20193;-76
2023/09/20 11:27:02;;;;;;;3.88;1.15;;;;;;;;;;4916591;29;20188;-75
2023/09/20 11:30:08;;;;;;;1.58;1.10;;;;;;;;;;4916004;29;20621;-76
2023/09/20 11:33:28;;;;;;;5.28;1.50;;;;;;;;;;4916468;29;20225;-75
2023/09/20 11:36:40;;;;;;;4.50;1.35;;;;;;;;;;4917023;29;20192;-75
2023/09/20 11:39:49;;;;;;;2.30;1.00;;;;;;;;;;4916567;29;20185;-75
2023/09/20 11:42:53;;;;;;;1.98;1.35;;;;;;;;;;4904712;29;20222;-75
2023/09/20 11:45:57;;;;;;;1.60;1.08;;;;;;;;;;4917234;29;20504;-75
2023/09/20 11:49:04;;;;;;;2.25;1.08;;;;;;;;;;4915969;29;20529;-75
2023/09/20 11:52:08;;;;;;;3.80;1.10;;;;;;;;;;4915771;29;20675;-75
2023/09/20 11:55:13;;;;;;;3.67;1.13;;;;;;;;;;4919584;29;20189;-76
2023/09/20 11:58:21;;;;;;;2.40;0.82;;;;;;;;;;4919421;29;20181;-75
2023/09/20 12:01:29;;;;;;;1.02;0.93;;;;;;;;;;4919854;29;20236;-74
2023/09/20 12:04:33;;;;;;;0.80;0.75;;;;;;;;;;4919831;29;20549;-75
2023/09/20 12:07:37;;;;;;;1.67;1.00;;;;;;;;;;4919462;29;20187;-75
2023/09/20 12:10:42;;;;;;;3.70;1.02;;;;;;;;;;4920093;29;20177;-75
2023/09/20 12:13:47;;;;;;;2.05;1.00;;;;;;;;;;4919405;29;20205;-76
2023/09/20 12:16:51;;;;;;;1.92;0.82;;;;;;;;;;4919980;29;20186;-75
2023/09/20 12:19:55;;;;;;;1.48;0.90;;;;;;;;;;4919689;29;20191;-75
2023/09/20 12:23:01;;;;;;;1.75;1.05;;;;;;;;;;4907710;29;20232;-75
2023/09/20 12:26:06;;;;;;;1.50;0.80;;;;;;;;;;4918842;29;20188;-74
2023/09/20 12:29:10;;;;;;;1.98;0.95;;;;;;;;;;4919398;29;20186;-74
2023/09/20 12:32:15;;;;;;;2.50;0.95;;;;;;;;;;4919191;29;20217;-75
2023/09/20 12:35:19;;;;;;;2.60;1.02;;;;;;;;;;4919443;29;20629;-74
2023/09/20 12:38:24;;;;;;;8.95;1.10;;;;;;;;;;4919211;29;20232;-74
2023/09/20 12:41:28;;;;;;;1.88;0.90;;;;;;;;;;4919156;29;20228;-74
2023/09/20 12:44:33;;;;;;;1.95;1.10;;;;;;;;;;4919256;29;20277;-74
2023/09/20 12:47:41;;;;;;;0.80;0.80;;;;;;;;;;4919366;29;20184;-74
2023/09/20 12:50:46;;;;;;;2.65;1.30;;;;;;;;;;4918928;29;20185;-74
2023/09/20 12:53:50;;;;;;;3.53;1.10;;;;;;;;;;4918136;29;20181;-75
2023/09/20 12:56:55;;;;;;;1.70;0.77;;;;;;;;;;4919158;29;20185;-75
2023/09/20 13:00:00;;;;;;;1.15;0.60;;;;;;;;;;4918723;29;20181;-75
2023/09/20 13:03:06;;;;;;;3.47;1.00;;;;;;;;;;4919223;29;20224;-75
2023/09/20 13:06:14;;;;;;;2.63;0.80;;;;;;;;;;4917784;29;20189;-75
2023/09/20 13:09:21;;;;;;;2.25;0.93;;;;;;;;;;4918564;29;20186;-75
2023/09/20 13:12:25;;;;;;;3.13;0.93;;;;;;;;;;4918316;29;20224;-75
2023/09/20 13:15:30;;;;;;;0.70;0.70;;;;;;;;;;4918435;29;20189;-75
2023/09/20 13:18:34;;;;;;;1.83;0.70;;;;;;;;;;4917879;29;20185;-75
2023/09/20 13:21:40;;;;;;;1.77;1.00;;;;;;;;;;4918423;29;20693;-75
2023/09/20 13:24:46;;;;;;;1.77;0.88;;;;;;;;;;4918532;29;20197;-75
2023/09/20 13:27:53;;;;;;;2.40;1.00;;;;;;;;;;4918296;29;20182;-75
2023/09/20 13:30:59;;;;;;;2.60;1.10;;;;;;;;;;4918053;29;20522;-75
2023/09/20 13:34:04;;;;;;;1.60;0.70;;;;;;;;;;4918481;29;20185;-75
2023/09/20 13:37:09;;;;;;;1.98;0.90;;;;;;;;;;4918286;29;20187;-75
2023/09/20 13:40:24;;;;;;;1.27;0.70;;;;;;;;;;4918429;29;20185;-75
2023/09/20 13:43:28;;;;;;;1.50;1.00;;;;;;;;;;4917171;29;20649;-75
2023/09/20 13:46:32;;;;;;;2.13;0.77;;;;;;;;;;4918159;29;20664;-75
2023/09/20 13:49:36;;;;;;;3.83;0.90;;;;;;;;;;4917052;29;20189;-75
2023/09/20 13:52:42;;;;;;;1.13;0.80;;;;;;;;;;4917723;29;20217;-75
2023/09/20 13:55:46;;;;;;;3.00;1.05;;;;;;;;;;4916907;29;20633;-75
2023/09/20 13:58:54;;;;;;;1.35;0.90;;;;;;;;;;4918018;29;20629;-75
2023/09/20 14:02:00;;;;;;;3.83;1.00;;;;;;;;;;4916963;29;20229;-75
2023/09/20 14:05:14;;;;;;;1.23;0.80;;;;;;;;;;4918119;29;20189;-75
2023/09/20 14:08:19;;;;;;;1.58;0.80;;;;;;;;;;4917547;29;20185;-75
2023/09/20 14:11:23;;;;;;;1.52;0.90;;;;;;;;;;4917746;29;20226;-74
2023/09/20 14:14:27;;;;;;;4.05;1.13;;;;;;;;;;4916731;29;20637;-75
2023/09/20 14:17:31;;;;;;;1.38;0.80;;;;;;;;;;4916550;29;20642;-75
2023/09/20 14:20:35;;;;;;;1.92;0.82;;;;;;;;;;4916572;29;20191;-75
2023/09/20 14:23:39;;;;;;;3.33;1.02;;;;;;;;;;4916787;29;20199;-75
2023/09/20 14:26:45;;;;;;;3.70;0.88;;;;;;;;;;4917280;29;20528;-75
2023/09/20 14:29:49;;;;;;;4.22;1.10;;;;;;;;;;4916553;29;20185;-75
2023/09/20 14:32:54;;;;;;;3.03;0.90;;;;;;;;;;4917008;29;20218;-75
2023/09/20 14:35:58;;;;;;;4.72;1.02;;;;;;;;;;4916614;29;20196;-75
2023/09/20 14:39:02;;;;;;;1.63;1.02;;;;;;;;;;4917392;29;20183;-75
2023/09/20 14:42:08;;;;;;;1.65;1.15;;;;;;;;;;4916253;29;20232;-75
2023/09/20 14:45:13;;;;;;;1.17;1.00;;;;;;;;;;4917044;29;20195;-74
2023/09/20 14:48:17;;;;;;;3.95;1.13;;;;;;;;;;4917347;29;20631;-74
2023/09/20 14:51:22;;;;;;;1.75;0.90;;;;;;;;;;4916129;29;20217;-75
2023/09/20 14:54:26;;;;;;;2.80;0.90;;;;;;;;;;4916949;29;20187;-75
2023/09/20 14:57:33;;;;;;;1.08;0.80;;;;;;;;;;4916666;29;20191;-75
2023/09/20 15:00:39;;;;;;;1.17;0.90;;;;;;;;;;4916269;29;20630;-75
2023/09/20 15:03:43;;;;;;;1.23;0.82;;;;;;;;;;4917155;29;20545;-75
2023/09/20 15:06:47;;;;;;;1.33;0.80;;;;;;;;;;4916771;29;20185;-75
2023/09/20 15:09:51;;;;;;;1.02;0.82;;;;;;;;;;4916765;29;20189;-75
2023/09/20 15:13:01;;;;;;;3.50;1.08;;;;;;;;;;4916572;29;20231;-75
2023/09/20 15:16:18;;;;;;;2.00;1.10;;;;;;;;;;4917127;29;20179;-75
2023/09/20 15:19:23;;;;;;;2.00;1.05;;;;;;;;;;4916912;29;20193;-75
2023/09/20 15:22:31;;;;;;;1.40;0.82;;;;;;;;;;4916400;29;20232;-75
2023/09/20 15:25:35;;;;;;;1.88;1.08;;;;;;;;;;4916500;29;20194;-74
2023/09/20 15:28:40;;;;;;;1.70;1.10;;;;;;;;;;4917492;29;20239;-74
2023/09/20 15:31:45;;;;;;;4.55;1.13;;;;;;;;;;4919839;29;20585;-74
2023/09/20 15:34:57;;;;;;;1.73;0.95;;;;;;;;;;4920423;29;20534;-74
2023/09/20 15:38:01;;;;;;;3.33;1.10;;;;;;;;;;4920490;29;20183;-74
2023/09/20 15:41:07;;;;;;;2.85;1.10;;;;;;;;;;4920115;29;20213;-74
2023/09/20 15:44:11;;;;;;;4.70;1.10;;;;;;;;;;4920054;29;20643;-75
2023/09/20 15:47:16;;;;;;;2.95;1.00;;;;;;;;;;4920206;29;20186;-75
2023/09/20 15:50:20;;;;;;;2.80;1.30;;;;;;;;;;4919390;29;20531;-75
2023/09/20 15:53:26;;;;;;;1.75;1.02;;;;;;;;;;4919283;29;20185;-75
2023/09/20 15:56:30;;;;;;;1.98;1.10;;;;;;;;;;4919797;29;20645;-75
2023/09/20 15:59:34;;;;;;;1.10;1.00;;;;;;;;;;4919713;29;20189;-75
2023/09/20 16:02:38;;;;;;;1.23;0.77;;;;;;;;;;4919686;29;20645;-75
2023/09/20 16:05:43;;;;;;;2.40;1.03;;;;;;;;;;4920022;29;20189;-75
2023/09/20 16:08:49;;;;;;;5.33;1.60;;;;;;;;;;4919536;29;20192;-75
2023/09/20 16:11:53;;;;;;;5.80;1.17;;;;;;;;;;4918920;29;20572;-74
2023/09/20 16:14:57;;;;;;;7.97;1.37;;;;;;;;;;4919627;29;20195;-75
2023/09/20 16:18:03;;;;;;;1.67;1.00;;;;;;;;;;4919386;29;20651;-75
2023/09/20 16:21:07;;;;;;;2.13;1.00;;;;;;;;;;4918672;29;20190;-74
2023/09/20 16:24:12;;;;;;;4.53;1.10;;;;;;;;;;4919228;29;20528;-75
2023/09/20 16:27:16;;;;;;;2.67;1.00;;;;;;;;;;4919165;29;20186;-74
2023/09/20 16:30:21;;;;;;;3.57;1.13;;;;;;;;;;4919057;29;20191;-75
2023/09/20 16:33:25;;;;;;;5.80;1.37;;;;;;;;;;4918367;29;20499;-74
2023/09/20 16:36:29;;;;;;;5.77;1.30;;;;;;;;;;4919392;29;20190;-75
2023/09/20 16:39:33;;;;;;;3.83;1.20;;;;;;;;;;4918857;29;20194;-74
2023/09/20 16:42:38;;;;;;;2.37;1.30;;;;;;;;;;4918526;29;20235;-74
2023/09/20 16:45:41;;;;;;;3.43;1.10;;;;;;;;;;4919197;29;20195;-74
2023/09/20 16:48:47;;;;;;;1.60;1.13;;;;;;;;;;4918319;29;20187;-74
2023/09/20 16:51:54;;;;;;;1.87;1.20;;;;;;;;;;4918281;29;20221;-75
2023/09/20 16:54:58;;;;;;;1.30;1.20;;;;;;;;;;4918229;29;20527;-75
2023/09/20 16:58:03;;;;;;;2.70;1.33;;;;;;;;;;4918650;29;20189;-74
2023/09/20 17:01:07;;;;;;;4.23;1.10;;;;;;;;;;4918062;29;20182;-75
2023/09/20 17:04:11;;;;;;;4.97;1.50;;;;;;;;;;4918385;29;20186;-74
2023/09/20 17:07:16;;;;;;;2.27;1.17;;;;;;;;;;4918760;29;20189;-74
2023/09/20 17:10:22;;;;;;;1.93;1.23;;;;;;;;;;4918750;29;20191;-74
2023/09/20 17:13:26;;;;;;;3.07;1.57;;;;;;;;;;4917556;29;20204;-75
2023/09/20 17:16:31;;;;;;;4.63;1.90;;;;;;;;;;4918596;29;20531;-75
2023/09/20 17:19:37;;;;;;;6.87;1.50;;;;;;;;;;4918545;29;20194;-74
2023/09/20 17:22:41;;;;;;;2.80;1.80;;;;;;;;;;4917589;29;20232;-74
2023/09/20 17:25:45;;;;;;;2.17;1.37;;;;;;;;;;4918438;29;20189;-75
2023/09/20 17:28:52;;;;;;;1.67;1.57;;;;;;;;;;4918076;29;20184;-74
2023/09/20 17:31:57;;;;;;;2.30;1.50;;;;;;;;;;4917475;29;20221;-74
2023/09/20 17:35:01;;;;;;;2.53;1.63;;;;;;;;;;4917624;29;20189;-75
2023/09/20 17:38:07;;;;;;;6.33;1.80;;;;;;;;;;4918520;29;20184;-75
2023/09/20 17:41:12;;;;;;;1.47;1.30;;;;;;;;;;4917497;29;20185;-75
2023/09/20 17:44:17;;;;;;;3.27;1.63;;;;;;;;;;4918137;29;20174;-75
2023/09/20 17:47:22;;;;;;;3.33;1.50;;;;;;;;;;4917036;29;20185;-74
2023/09/20 17:50:27;;;;;;;3.53;1.57;;;;;;;;;;4917729;29;20633;-74
2023/09/20 17:53:32;;;;;;;2.17;1.47;;;;;;;;;;4917820;29;20537;-75
2023/09/20 17:56:36;;;;;;;5.03;1.87;;;;;;;;;;4918212;29;20506;-75
2023/09/20 17:59:40;;;;;;;2.33;1.90;;;;;;;;;;4917835;29;20185;-74
2023/09/20 18:02:45;;;;;;;6.13;2.10;;;;;;;;;;4916730;29;20237;-74
2023/09/20 18:05:49;;;;;;;4.67;2.10;;;;;;;;;;4918068;29;20185;-74
2023/09/20 18:08:53;;;;;;;2.13;1.60;;;;;;;;;;4917728;29;20629;-74
2023/09/20 18:11:58;;;;;;;3.60;1.90;;;;;;;;;;4917527;29;20232;-74
2023/09/20 18:15:03;;;;;;;4.50;2.00;;;;;;;;;;4917374;29;20523;-74
2023/09/20 18:18:09;;;;;;;2.53;1.90;;;;;;;;;;4917288;29;20180;-74
2023/09/20 18:21:15;;;;;;;3.50;2.00;;;;;;;;;;4917503;29;20227;-74
2023/09/20 18:24:19;;;;;;;1.87;1.60;;;;;;;;;;4916469;29;20177;-75
2023/09/20 18:27:23;;;;;;;3.57;2.03;;;;;;;;;;4916639;29;20189;-74
2023/09/20 18:30:28;;;;;;;5.20;1.93;;;;;;;;;;4917191;29;20180;-75
2023/09/20 18:33:32;;;;;;;3.80;1.83;;;;;;;;;;4916379;29;20181;-75
2023/09/20 18:36:36;;;;;;;3.30;1.90;;;;;;;;;;4917355;29;20530;-74
2023/09/20 18:39:43;;;;;;;1.97;1.63;;;;;;;;;;4917283;29;20629;-74
2023/09/20 18:42:47;;;;;;;5.33;1.73;;;;;;;;;;4916918;29;20224;-75
2023/09/20 18:45:51;;;;;;;1.80;1.50;;;;;;;;;;4917284;29;20184;-75
2023/09/20 18:48:57;;;;;;;2.23;1.80;;;;;;;;;;4917152;29;20189;-74
2023/09/20 18:52:01;;;;;;;3.77;2.47;;;;;;;;;;4916824;29;20566;-74
2023/09/20 18:55:05;;;;;;;2.70;2.17;;;;;;;;;;4916354;29;20539;-74
2023/09/20 18:58:13;;;;;;;4.30;2.30;;;;;;;;;;4916691;29;20184;-74
2023/09/20 19:01:20;;;;;;;4.03;2.60;;;;;;;;;;4917070;29;20221;-74
2023/09/20 19:04:24;;;;;;;8.43;2.40;;;;;;;;;;4918324;29;20177;-74
2023/09/20 19:07:28;;;;;;;3.23;2.10;;;;;;;;;;4920052;29;20180;-74
2023/09/20 19:10:32;;;;;;;2.97;1.83;;;;;;;;;;4920752;29;20185;-74
2023/09/20 19:13:38;;;;;;;1.97;1.70;;;;;;;;;;4919742;29;20204;-74